sensor_id;sensor_type;location;lat;lon;timestamp;pressure;altitude;pressure_sealevel;temperature;humidity
35419;BME280;21525;41.240;16.500;2022-12-18T00:01:47;102070.50;;;20.17;87.94
35419;BME280;21525;41.240;16.500;2022-12-18T00:04:24;102074.94;;;20.14;88.54
35419;BME280;21525;41.240;16.500;2022-12-18T00:06:50;102070.94;;;20.31;85.47
35419;BME280;21525;41.240;16.500;2022-12-18T00:09:16;102075.09;;;19.82;91.80
35419;BME280;21525;41.240;16.500;2022-12-18T00:11:43;102078.81;;;20.04;91.71
35419;BME280;21525;41.240;16.500;2022-12-18T00:14:11;102073.75;;;20.53;89.49
35419;BME280;21525;41.240;16.500;2022-12-18T00:16:38;102088.94;;;19.90;92.99
35419;BME280;21525;41.240;16.500;2022-12-18T00:19:05;102088.84;;;20.21;91.65
35419;BME280;21525;41.240;16.500;2022-12-18T00:21:32;102086.97;;;20.25;90.50
35419;BME280;21525;41.240;16.500;2022-12-18T00:23:59;102082.59;;;20.24;89.44
35419;BME280;21525;41.240;16.500;2022-12-18T00:26:31;102085.00;;;20.03;92.17
35419;BME280;21525;41.240;16.500;2022-12-18T00:29:11;102082.84;;;20.16;93.33
35419;BME280;21525;41.240;16.500;2022-12-18T00:31:39;102091.13;;;19.76;96.31
35419;BME280;21525;41.240;16.500;2022-12-18T00:34:06;102096.91;;;20.17;93.83
35419;BME280;21525;41.240;16.500;2022-12-18T00:36:33;102101.84;;;19.99;94.30
35419;BME280;21525;41.240;16.500;2022-12-18T00:39:03;102099.41;;;19.64;97.03
35419;BME280;21525;41.240;16.500;2022-12-18T00:41:29;102100.94;;;20.00;93.72
35419;BME280;21525;41.240;16.500;2022-12-18T00:44:15;102111.94;;;19.56;99.82
35419;BME280;21525;41.240;16.500;2022-12-18T00:46:42;102113.34;;;19.36;99.23
35419;BME280;21525;41.240;16.500;2022-12-18T00:49:11;102111.38;;;19.75;98.05
35419;BME280;21525;41.240;16.500;2022-12-18T00:51:37;102112.19;;;20.07;96.30
35419;BME280;21525;41.240;16.500;2022-12-18T00:54:03;102113.25;;;20.01;96.04
35419;BME280;21525;41.240;16.500;2022-12-18T00:56:30;102119.75;;;19.90;96.09
35419;BME280;21525;41.240;16.500;2022-12-18T00:58:55;102122.03;;;19.72;98.46
35419;BME280;21525;41.240;16.500;2022-12-18T01:01:21;102133.94;;;19.86;97.42
35419;BME280;21525;41.240;16.500;2022-12-18T01:03:47;102125.50;;;19.74;97.08
35419;BME280;21525;41.240;16.500;2022-12-18T01:06:16;102131.59;;;19.76;98.50
35419;BME280;21525;41.240;16.500;2022-12-18T01:08:42;102138.84;;;19.99;97.96
35419;BME280;21525;41.240;16.500;2022-12-18T01:11:14;102132.16;;;19.86;100.00
35419;BME280;21525;41.240;16.500;2022-12-18T01:13:40;102137.44;;;19.57;100.00
35419;BME280;21525;41.240;16.500;2022-12-18T01:16:06;102143.06;;;19.75;99.26
35419;BME280;21525;41.240;16.500;2022-12-18T01:18:35;102142.28;;;20.01;98.33
35419;BME280;21525;41.240;16.500;2022-12-18T01:21:08;102146.00;;;20.24;96.55
35419;BME280;21525;41.240;16.500;2022-12-18T01:23:36;102148.84;;;19.57;100.00
35419;BME280;21525;41.240;16.500;2022-12-18T01:26:14;102159.13;;;19.68;100.00
35419;BME280;21525;41.240;16.500;2022-12-18T01:28:41;102161.59;;;19.74;100.00
35419;BME280;21525;41.240;16.500;2022-12-18T01:31:19;102167.59;;;19.79;100.00
35419;BME280;21525;41.240;16.500;2022-12-18T01:33:45;102164.75;;;19.54;100.00
35419;BME280;21525;41.240;16.500;2022-12-18T01:36:18;102163.81;;;19.88;100.00
35419;BME280;21525;41.240;16.500;2022-12-18T01:38:47;102162.53;;;20.02;98.63
35419;BME280;21525;41.240;16.500;2022-12-18T01:41:15;102160.19;;;19.27;100.00
35419;BME280;21525;41.240;16.500;2022-12-18T01:43:57;102155.22;;;19.81;100.00
35419;BME280;21525;41.240;16.500;2022-12-18T01:46:25;102161.56;;;19.09;100.00
35419;BME280;21525;41.240;16.500;2022-12-18T01:48:57;102162.06;;;19.23;100.00
35419;BME280;21525;41.240;16.500;2022-12-18T01:51:23;102167.94;;;19.00;100.00
35419;BME280;21525;41.240;16.500;2022-12-18T01:53:49;102162.63;;;19.68;100.00
35419;BME280;21525;41.240;16.500;2022-12-18T01:56:18;102170.13;;;19.17;100.00
35419;BME280;21525;41.240;16.500;2022-12-18T02:01:14;102176.34;;;19.49;100.00
35419;BME280;21525;41.240;16.500;2022-12-18T02:03:43;102177.72;;;19.29;100.00
35419;BME280;21525;41.240;16.500;2022-12-18T02:06:29;102183.91;;;19.28;100.00
35419;BME280;21525;41.240;16.500;2022-12-18T02:11:46;102185.22;;;19.12;100.00
35419;BME280;21525;41.240;16.500;2022-12-18T02:14:36;102186.44;;;19.33;100.00
35419;BME280;21525;41.240;16.500;2022-12-18T02:17:20;102180.94;;;19.08;100.00
35419;BME280;21525;41.240;16.500;2022-12-18T02:20:05;102188.72;;;18.77;100.00
35419;BME280;21525;41.240;16.500;2022-12-18T02:26:02;102191.63;;;19.36;100.00
35419;BME280;21525;41.240;16.500;2022-12-18T02:28:58;102185.84;;;19.56;100.00
35419;BME280;21525;41.240;16.500;2022-12-18T02:31:31;102193.09;;;19.80;100.00
35419;BME280;21525;41.240;16.500;2022-12-18T02:34:03;102190.66;;;19.72;100.00
35419;BME280;21525;41.240;16.500;2022-12-18T02:36:36;102194.22;;;19.71;100.00
35419;BME280;21525;41.240;16.500;2022-12-18T02:39:05;102195.72;;;19.48;100.00
35419;BME280;21525;41.240;16.500;2022-12-18T02:41:31;102190.22;;;19.57;99.98
35419;BME280;21525;41.240;16.500;2022-12-18T02:44:00;102199.19;;;18.80;100.00
35419;BME280;21525;41.240;16.500;2022-12-18T02:49:04;102189.19;;;19.28;100.00
35419;BME280;21525;41.240;16.500;2022-12-18T02:51:53;102193.00;;;18.83;100.00
35419;BME280;21525;41.240;16.500;2022-12-18T02:55:05;102198.88;;;19.62;100.00
35419;BME280;21525;41.240;16.500;2022-12-18T03:02:42;102211.50;;;19.17;100.00
35419;BME280;21525;41.240;16.500;2022-12-18T03:05:18;102211.19;;;19.27;100.00
35419;BME280;21525;41.240;16.500;2022-12-18T03:10:42;102216.72;;;19.52;100.00
35419;BME280;21525;41.240;16.500;2022-12-18T03:13:18;102220.97;;;19.90;100.00
35419;BME280;21525;41.240;16.500;2022-12-18T03:15:52;102223.69;;;19.87;100.00
35419;BME280;21525;41.240;16.500;2022-12-18T03:18:23;102219.75;;;20.02;97.17
35419;BME280;21525;41.240;16.500;2022-12-18T03:20:53;102213.56;;;20.03;97.07
35419;BME280;21525;41.240;16.500;2022-12-18T03:23:24;102230.31;;;19.71;100.00
35419;BME280;21525;41.240;16.500;2022-12-18T03:25:58;102219.28;;;19.55;100.00
35419;BME280;21525;41.240;16.500;2022-12-18T03:28:28;102221.25;;;19.81;99.06
35419;BME280;21525;41.240;16.500;2022-12-18T03:31:00;102230.22;;;19.40;100.00
35419;BME280;21525;41.240;16.500;2022-12-18T03:33:32;102221.22;;;19.49;100.00
35419;BME280;21525;41.240;16.500;2022-12-18T03:36:01;102229.06;;;19.52;100.00
35419;BME280;21525;41.240;16.500;2022-12-18T03:38:27;102231.72;;;19.83;99.31
35419;BME280;21525;41.240;16.500;2022-12-18T03:43:55;102240.06;;;19.33;100.00
35419;BME280;21525;41.240;16.500;2022-12-18T03:46:43;102234.75;;;19.69;100.00
35419;BME280;21525;41.240;16.500;2022-12-18T03:49:21;102237.59;;;19.94;97.85
35419;BME280;21525;41.240;16.500;2022-12-18T03:52:01;102244.56;;;19.64;100.00
35419;BME280;21525;41.240;16.500;2022-12-18T03:54:30;102253.19;;;19.36;100.00
35419;BME280;21525;41.240;16.500;2022-12-18T03:57:18;102250.53;;;19.36;100.00
35419;BME280;21525;41.240;16.500;2022-12-18T03:59:47;102243.97;;;19.53;97.37
35419;BME280;21525;41.240;16.500;2022-12-18T04:02:17;102254.16;;;19.68;96.99
35419;BME280;21525;41.240;16.500;2022-12-18T04:04:46;102253.91;;;19.77;96.23
35419;BME280;21525;41.240;16.500;2022-12-18T04:07:13;102262.97;;;19.67;95.35
35419;BME280;21525;41.240;16.500;2022-12-18T04:09:44;102269.41;;;19.89;93.89
35419;BME280;21525;41.240;16.500;2022-12-18T04:12:12;102280.63;;;19.65;93.35
35419;BME280;21525;41.240;16.500;2022-12-18T04:14:38;102289.72;;;19.53;94.32
35419;BME280;21525;41.240;16.500;2022-12-18T04:17:07;102292.75;;;18.99;99.90
35419;BME280;21525;41.240;16.500;2022-12-18T04:19:33;102300.06;;;19.25;99.19
35419;BME280;21525;41.240;16.500;2022-12-18T04:22:00;102300.66;;;19.36;95.29
35419;BME280;21525;41.240;16.500;2022-12-18T04:24:29;102305.88;;;19.75;91.43
35419;BME280;21525;41.240;16.500;2022-12-18T04:27:08;102312.22;;;19.68;91.79
35419;BME280;21525;41.240;16.500;2022-12-18T04:29:40;102318.94;;;19.45;91.38
35419;BME280;21525;41.240;16.500;2022-12-18T04:32:07;102323.69;;;19.67;91.38
35419;BME280;21525;41.240;16.500;2022-12-18T04:34:33;102323.56;;;19.71;90.54
35419;BME280;21525;41.240;16.500;2022-12-18T04:36:59;102327.88;;;19.75;91.07
35419;BME280;21525;41.240;16.500;2022-12-18T04:39:26;102332.25;;;19.39;91.97
35419;BME280;21525;41.240;16.500;2022-12-18T04:41:54;102336.19;;;19.59;90.35
35419;BME280;21525;41.240;16.500;2022-12-18T04:44:20;102345.16;;;19.52;90.29
35419;BME280;21525;41.240;16.500;2022-12-18T04:46:46;102345.25;;;19.83;90.34
35419;BME280;21525;41.240;16.500;2022-12-18T04:49:12;102347.78;;;19.53;89.28
35419;BME280;21525;41.240;16.500;2022-12-18T04:51:38;102347.53;;;19.64;88.83
35419;BME280;21525;41.240;16.500;2022-12-18T04:54:04;102348.94;;;19.41;90.10
35419;BME280;21525;41.240;16.500;2022-12-18T04:56:31;102358.69;;;19.75;87.47
35419;BME280;21525;41.240;16.500;2022-12-18T04:58:57;102352.56;;;19.73;89.20
35419;BME280;21525;41.240;16.500;2022-12-18T05:01:23;102355.44;;;19.64;89.50
35419;BME280;21525;41.240;16.500;2022-12-18T05:03:50;102359.66;;;20.39;84.99
35419;BME280;21525;41.240;16.500;2022-12-18T05:06:16;102367.19;;;19.86;87.74
35419;BME280;21525;41.240;16.500;2022-12-18T05:08:42;102376.78;;;19.55;88.65
35419;BME280;21525;41.240;16.500;2022-12-18T05:11:11;102374.75;;;19.66;88.87
35419;BME280;21525;41.240;16.500;2022-12-18T05:13:37;102374.16;;;19.89;87.59
35419;BME280;21525;41.240;16.500;2022-12-18T05:16:04;102377.94;;;19.80;86.86
35419;BME280;21525;41.240;16.500;2022-12-18T05:18:30;102380.19;;;19.94;85.85
35419;BME280;21525;41.240;16.500;2022-12-18T05:20:57;102379.34;;;19.58;89.98
35419;BME280;21525;41.240;16.500;2022-12-18T05:23:24;102376.97;;;20.15;86.92
35419;BME280;21525;41.240;16.500;2022-12-18T05:25:59;102384.47;;;19.64;89.78
35419;BME280;21525;41.240;16.500;2022-12-18T05:28:29;102385.50;;;19.18;93.67
35419;BME280;21525;41.240;16.500;2022-12-18T05:30:57;102389.88;;;19.93;89.00
35419;BME280;21525;41.240;16.500;2022-12-18T05:33:25;102392.91;;;19.79;88.71
35419;BME280;21525;41.240;16.500;2022-12-18T05:35:52;102400.38;;;19.96;87.33
35419;BME280;21525;41.240;16.500;2022-12-18T05:38:19;102400.00;;;20.11;87.42
35419;BME280;21525;41.240;16.500;2022-12-18T05:40:46;102408.31;;;19.96;87.28
35419;BME280;21525;41.240;16.500;2022-12-18T05:43:12;102412.19;;;20.16;86.80
35419;BME280;21525;41.240;16.500;2022-12-18T05:45:39;102410.19;;;19.56;89.71
35419;BME280;21525;41.240;16.500;2022-12-18T05:48:06;102413.22;;;20.11;85.71
35419;BME280;21525;41.240;16.500;2022-12-18T05:50:39;102417.31;;;19.88;88.14
35419;BME280;21525;41.240;16.500;2022-12-18T05:53:05;102427.09;;;19.84;89.11
35419;BME280;21525;41.240;16.500;2022-12-18T05:55:36;102436.03;;;20.14;86.05
35419;BME280;21525;41.240;16.500;2022-12-18T05:58:03;102436.19;;;20.08;85.40
35419;BME280;21525;41.240;16.500;2022-12-18T06:00:30;102438.44;;;19.88;87.92
35419;BME280;21525;41.240;16.500;2022-12-18T06:02:58;102444.22;;;20.03;87.05
35419;BME280;21525;41.240;16.500;2022-12-18T06:05:25;102442.94;;;19.84;88.56
35419;BME280;21525;41.240;16.500;2022-12-18T06:07:50;102449.69;;;19.96;87.73
35419;BME280;21525;41.240;16.500;2022-12-18T06:10:16;102452.50;;;19.88;86.98
35419;BME280;21525;41.240;16.500;2022-12-18T06:12:42;102458.25;;;20.05;86.98
35419;BME280;21525;41.240;16.500;2022-12-18T06:15:08;102464.53;;;20.01;86.82
35419;BME280;21525;41.240;16.500;2022-12-18T06:17:35;102464.88;;;19.86;87.94
35419;BME280;21525;41.240;16.500;2022-12-18T06:20:01;102467.56;;;19.85;88.77
35419;BME280;21525;41.240;16.500;2022-12-18T06:22:27;102468.94;;;20.35;87.15
35419;BME280;21525;41.240;16.500;2022-12-18T06:24:53;102468.19;;;19.96;89.59
35419;BME280;21525;41.240;16.500;2022-12-18T06:27:19;102471.13;;;19.82;90.55
35419;BME280;21525;41.240;16.500;2022-12-18T06:29:44;102473.53;;;19.56;92.37
35419;BME280;21525;41.240;16.500;2022-12-18T06:32:11;102473.44;;;19.97;92.76
35419;BME280;21525;41.240;16.500;2022-12-18T06:34:37;102486.28;;;20.12;90.47
35419;BME280;21525;41.240;16.500;2022-12-18T06:37:03;102482.47;;;20.23;93.22
35419;BME280;21525;41.240;16.500;2022-12-18T06:39:29;102488.34;;;20.00;93.40
35419;BME280;21525;41.240;16.500;2022-12-18T06:41:55;102478.66;;;19.99;95.18
35419;BME280;21525;41.240;16.500;2022-12-18T06:44:21;102489.19;;;20.36;94.57
35419;BME280;21525;41.240;16.500;2022-12-18T06:46:47;102491.16;;;19.92;96.43
35419;BME280;21525;41.240;16.500;2022-12-18T06:49:13;102499.78;;;20.34;90.93
35419;BME280;21525;41.240;16.500;2022-12-18T06:51:39;102491.97;;;20.65;92.41
35419;BME280;21525;41.240;16.500;2022-12-18T06:54:05;102503.78;;;20.51;89.30
35419;BME280;21525;41.240;16.500;2022-12-18T06:56:30;102500.72;;;20.98;91.15
35419;BME280;21525;41.240;16.500;2022-12-18T06:58:56;102495.16;;;21.40;92.80
35419;BME280;21525;41.240;16.500;2022-12-18T07:01:22;102493.50;;;22.44;81.69
35419;BME280;21525;41.240;16.500;2022-12-18T07:03:55;102491.00;;;23.38;70.19
35419;BME280;21525;41.240;16.500;2022-12-18T07:06:23;102500.59;;;24.07;66.49
35419;BME280;21525;41.240;16.500;2022-12-18T07:08:50;102500.66;;;24.89;62.25
35419;BME280;21525;41.240;16.500;2022-12-18T07:11:17;102501.31;;;26.24;57.60
35419;BME280;21525;41.240;16.500;2022-12-18T07:13:44;102502.13;;;26.60;57.43
35419;BME280;21525;41.240;16.500;2022-12-18T07:16:15;102511.53;;;26.33;57.29
35419;BME280;21525;41.240;16.500;2022-12-18T07:18:41;102509.81;;;26.49;56.15
35419;BME280;21525;41.240;16.500;2022-12-18T07:21:09;102510.91;;;26.28;56.19
35419;BME280;21525;41.240;16.500;2022-12-18T07:23:36;102511.16;;;27.08;54.18
35419;BME280;21525;41.240;16.500;2022-12-18T07:26:09;102517.22;;;27.27;52.78
35419;BME280;21525;41.240;16.500;2022-12-18T07:28:36;102516.75;;;27.03;51.26
35419;BME280;21525;41.240;16.500;2022-12-18T07:31:23;102528.44;;;25.97;54.44
35419;BME280;21525;41.240;16.500;2022-12-18T07:33:50;102543.03;;;26.61;53.48
35419;BME280;21525;41.240;16.500;2022-12-18T07:36:16;102534.06;;;25.91;53.53
35419;BME280;21525;41.240;16.500;2022-12-18T07:38:42;102531.16;;;26.32;52.25
35419;BME280;21525;41.240;16.500;2022-12-18T07:41:12;102538.41;;;25.75;53.84
35419;BME280;21525;41.240;16.500;2022-12-18T07:43:39;102551.88;;;24.33;57.84
35419;BME280;21525;41.240;16.500;2022-12-18T07:46:07;102552.38;;;23.99;60.24
35419;BME280;21525;41.240;16.500;2022-12-18T07:48:33;102554.75;;;23.83;61.43
35419;BME280;21525;41.240;16.500;2022-12-18T07:51:00;102556.03;;;23.26;63.35
35419;BME280;21525;41.240;16.500;2022-12-18T07:53:27;102553.59;;;23.43;63.54
35419;BME280;21525;41.240;16.500;2022-12-18T07:55:56;102564.75;;;22.55;68.03
35419;BME280;21525;41.240;16.500;2022-12-18T07:58:22;102567.00;;;22.67;67.70
35419;BME280;21525;41.240;16.500;2022-12-18T08:00:48;102567.97;;;22.38;68.83
35419;BME280;21525;41.240;16.500;2022-12-18T08:03:14;102576.69;;;23.41;66.89
35419;BME280;21525;41.240;16.500;2022-12-18T08:05:40;102575.34;;;22.82;66.87
35419;BME280;21525;41.240;16.500;2022-12-18T08:08:05;102577.19;;;22.79;67.75
35419;BME280;21525;41.240;16.500;2022-12-18T08:10:31;102577.47;;;22.44;69.65
35419;BME280;21525;41.240;16.500;2022-12-18T08:12:57;102578.09;;;22.78;67.76
35419;BME280;21525;41.240;16.500;2022-12-18T08:15:23;102579.97;;;22.22;70.19
35419;BME280;21525;41.240;16.500;2022-12-18T08:17:49;102588.34;;;22.63;69.20
35419;BME280;21525;41.240;16.500;2022-12-18T08:20:15;102588.56;;;22.83;67.30
35419;BME280;21525;41.240;16.500;2022-12-18T08:22:41;102594.38;;;22.41;69.64
35419;BME280;21525;41.240;16.500;2022-12-18T08:25:08;102594.19;;;22.20;69.81
35419;BME280;21525;41.240;16.500;2022-12-18T08:27:34;102594.00;;;22.52;68.62
35419;BME280;21525;41.240;16.500;2022-12-18T08:30:00;102605.50;;;22.79;68.35
35419;BME280;21525;41.240;16.500;2022-12-18T08:32:27;102604.78;;;22.74;67.86
35419;BME280;21525;41.240;16.500;2022-12-18T08:34:52;102599.78;;;23.16;66.77
35419;BME280;21525;41.240;16.500;2022-12-18T08:37:18;102605.44;;;22.54;68.66
35419;BME280;21525;41.240;16.500;2022-12-18T08:39:44;102611.72;;;22.52;69.40
35419;BME280;21525;41.240;16.500;2022-12-18T08:42:10;102614.53;;;22.19;71.30
35419;BME280;21525;41.240;16.500;2022-12-18T08:44:54;102616.22;;;22.22;72.24
35419;BME280;21525;41.240;16.500;2022-12-18T08:47:20;102619.22;;;22.39;71.68
35419;BME280;21525;41.240;16.500;2022-12-18T08:49:46;102617.97;;;22.23;71.36
35419;BME280;21525;41.240;16.500;2022-12-18T08:52:12;102622.34;;;22.24;71.90
35419;BME280;21525;41.240;16.500;2022-12-18T08:54:38;102620.38;;;22.30;71.84
35419;BME280;21525;41.240;16.500;2022-12-18T08:57:03;102622.03;;;22.06;71.69
35419;BME280;21525;41.240;16.500;2022-12-18T08:59:29;102632.34;;;22.96;68.82
35419;BME280;21525;41.240;16.500;2022-12-18T09:01:55;102633.31;;;22.94;69.22
35419;BME280;21525;41.240;16.500;2022-12-18T09:04:21;102633.88;;;22.75;70.04
35419;BME280;21525;41.240;16.500;2022-12-18T09:06:47;102639.66;;;22.62;70.33
35419;BME280;21525;41.240;16.500;2022-12-18T09:09:13;102642.09;;;23.21;67.97
35419;BME280;21525;41.240;16.500;2022-12-18T09:11:39;102639.81;;;23.35;67.41
35419;BME280;21525;41.240;16.500;2022-12-18T09:14:05;102636.13;;;23.39;66.10
35419;BME280;21525;41.240;16.500;2022-12-18T09:16:32;102639.69;;;23.38;65.73
35419;BME280;21525;41.240;16.500;2022-12-18T09:19:01;102636.81;;;23.19;66.33
35419;BME280;21525;41.240;16.500;2022-12-18T09:21:30;102650.44;;;23.60;64.98
35419;BME280;21525;41.240;16.500;2022-12-18T09:23:56;102631.59;;;23.89;63.65
35419;BME280;21525;41.240;16.500;2022-12-18T09:26:23;102638.94;;;24.50;62.06
35419;BME280;21525;41.240;16.500;2022-12-18T09:28:49;102636.75;;;24.16;62.05
35419;BME280;21525;41.240;16.500;2022-12-18T09:31:17;102638.88;;;24.51;61.66
35419;BME280;21525;41.240;16.500;2022-12-18T09:33:43;102641.81;;;24.22;62.08
35419;BME280;21525;41.240;16.500;2022-12-18T09:36:12;102633.00;;;24.43;60.63
35419;BME280;21525;41.240;16.500;2022-12-18T09:38:40;102630.31;;;23.99;63.57
35419;BME280;21525;41.240;16.500;2022-12-18T09:43:50;102637.91;;;24.96;59.35
35419;BME280;21525;41.240;16.500;2022-12-18T09:46:26;102634.31;;;25.17;59.68
35419;BME280;21525;41.240;16.500;2022-12-18T09:48:58;102635.59;;;24.66;60.38
35419;BME280;21525;41.240;16.500;2022-12-18T09:51:55;102641.69;;;25.10;59.10
35419;BME280;21525;41.240;16.500;2022-12-18T09:54:32;102643.81;;;24.60;58.41
35419;BME280;21525;41.240;16.500;2022-12-18T09:56:59;102648.06;;;24.21;61.25
35419;BME280;21525;41.240;16.500;2022-12-18T09:59:35;102645.63;;;24.38;60.38
35419;BME280;21525;41.240;16.500;2022-12-18T10:04:39;102655.91;;;24.24;60.72
35419;BME280;21525;41.240;16.500;2022-12-18T10:07:16;102652.41;;;24.45;60.51
35419;BME280;21525;41.240;16.500;2022-12-18T10:10:03;102662.19;;;23.76;63.31
35419;BME280;21525;41.240;16.500;2022-12-18T10:12:46;102659.84;;;23.92;63.04
35419;BME280;21525;41.240;16.500;2022-12-18T10:21:09;102670.72;;;23.11;65.03
35419;BME280;21525;41.240;16.500;2022-12-18T10:26:31;102675.09;;;23.63;63.51
35419;BME280;21525;41.240;16.500;2022-12-18T10:28:59;102669.88;;;24.30;61.37
35419;BME280;21525;41.240;16.500;2022-12-18T10:31:25;102677.13;;;24.03;61.82
35419;BME280;21525;41.240;16.500;2022-12-18T10:33:53;102674.06;;;23.67;63.50
35419;BME280;21525;41.240;16.500;2022-12-18T10:36:20;102679.84;;;24.02;62.96
35419;BME280;21525;41.240;16.500;2022-12-18T10:38:46;102687.72;;;23.57;63.54
35419;BME280;21525;41.240;16.500;2022-12-18T10:43:46;102684.44;;;23.73;63.36
35419;BME280;21525;41.240;16.500;2022-12-18T10:46:20;102692.88;;;23.61;64.37
35419;BME280;21525;41.240;16.500;2022-12-18T10:48:56;102690.75;;;23.71;63.74
35419;BME280;21525;41.240;16.500;2022-12-18T10:51:27;102692.81;;;23.63;64.59
35419;BME280;21525;41.240;16.500;2022-12-18T10:53:56;102685.06;;;23.57;64.75
35419;BME280;21525;41.240;16.500;2022-12-18T10:56:25;102681.09;;;22.66;68.19
35419;BME280;21525;41.240;16.500;2022-12-18T10:59:00;102678.13;;;23.28;66.63
35419;BME280;21525;41.240;16.500;2022-12-18T11:01:28;102686.63;;;23.86;64.79
35419;BME280;21525;41.240;16.500;2022-12-18T11:06:24;102683.34;;;23.56;64.60
35419;BME280;21525;41.240;16.500;2022-12-18T11:09:05;102684.25;;;23.78;64.45
35419;BME280;21525;41.240;16.500;2022-12-18T11:11:32;102685.88;;;23.82;64.70
35419;BME280;21525;41.240;16.500;2022-12-18T11:16:29;102681.69;;;23.52;66.04
35419;BME280;21525;41.240;16.500;2022-12-18T11:21:41;102679.75;;;23.80;64.16
35419;BME280;21525;41.240;16.500;2022-12-18T11:24:19;102691.19;;;23.82;64.64
35419;BME280;21525;41.240;16.500;2022-12-18T11:26:46;102681.41;;;24.06;64.01
35419;BME280;21525;41.240;16.500;2022-12-18T11:29:36;102684.94;;;24.06;63.15
35419;BME280;21525;41.240;16.500;2022-12-18T11:34:46;102684.84;;;24.09;62.81
35419;BME280;21525;41.240;16.500;2022-12-18T11:37:15;102681.00;;;23.71;64.71
35419;BME280;21525;41.240;16.500;2022-12-18T11:40:34;102685.66;;;23.88;63.62
35419;BME280;21525;41.240;16.500;2022-12-18T11:43:47;102681.41;;;24.06;61.97
35419;BME280;21525;41.240;16.500;2022-12-18T11:45:53;102681.56;;;24.03;61.81
35419;BME280;21525;41.240;16.500;2022-12-18T11:50:57;102685.75;;;24.08;59.84
35419;BME280;21525;41.240;16.500;2022-12-18T11:53:24;102693.38;;;24.41;59.42
35419;BME280;21525;41.240;16.500;2022-12-18T11:58:38;102690.78;;;24.16;59.15
35419;BME280;21525;41.240;16.500;2022-12-18T12:03:42;102684.59;;;24.16;59.83
35419;BME280;21525;41.240;16.500;2022-12-18T12:09:15;102688.34;;;24.10;60.07
35419;BME280;21525;41.240;16.500;2022-12-18T12:14:55;102694.03;;;23.77;65.05
35419;BME280;21525;41.240;16.500;2022-12-18T12:17:44;102699.38;;;24.01;64.43
35419;BME280;21525;41.240;16.500;2022-12-18T12:20:57;102693.47;;;23.93;66.19
35419;BME280;21525;41.240;16.500;2022-12-18T12:26:18;102695.16;;;25.26;57.14
35419;BME280;21525;41.240;16.500;2022-12-18T12:33:58;102681.50;;;24.28;55.35
35419;BME280;21525;41.240;16.500;2022-12-18T12:38:57;102685.84;;;23.84;52.30
35419;BME280;21525;41.240;16.500;2022-12-18T12:41:31;102680.13;;;23.71;51.39
35419;BME280;21525;41.240;16.500;2022-12-18T12:44:28;102684.69;;;23.67;52.55
35419;BME280;21525;41.240;16.500;2022-12-18T12:47:00;102678.59;;;23.14;52.24
35419;BME280;21525;41.240;16.500;2022-12-18T12:49:32;102681.66;;;22.20;53.44
35419;BME280;21525;41.240;16.500;2022-12-18T12:52:08;102676.63;;;22.94;54.16
35419;BME280;21525;41.240;16.500;2022-12-18T12:54:36;102679.53;;;22.87;52.77
35419;BME280;21525;41.240;16.500;2022-12-18T12:57:18;102692.03;;;22.83;52.50
35419;BME280;21525;41.240;16.500;2022-12-18T13:07:33;102685.34;;;22.71;53.22
35419;BME280;21525;41.240;16.500;2022-12-18T13:13:11;102686.78;;;22.82;53.96
35419;BME280;21525;41.240;16.500;2022-12-18T13:15:42;102691.28;;;23.06;53.40
35419;BME280;21525;41.240;16.500;2022-12-18T13:20:35;102691.22;;;22.53;52.34
35419;BME280;21525;41.240;16.500;2022-12-18T13:25:53;102692.78;;;23.13;52.42
35419;BME280;21525;41.240;16.500;2022-12-18T13:36:47;102699.28;;;22.76;52.40
35419;BME280;21525;41.240;16.500;2022-12-18T13:41:50;102707.84;;;22.58;52.84
35419;BME280;21525;41.240;16.500;2022-12-18T13:46:52;102709.69;;;22.56;52.15
35419;BME280;21525;41.240;16.500;2022-12-18T13:49:23;102712.16;;;22.62;50.61
35419;BME280;21525;41.240;16.500;2022-12-18T13:51:52;102718.28;;;22.64;50.71
35419;BME280;21525;41.240;16.500;2022-12-18T13:57:02;102725.34;;;21.75;53.35
35419;BME280;21525;41.240;16.500;2022-12-18T13:59:40;102722.97;;;22.27;52.53
35419;BME280;21525;41.240;16.500;2022-12-18T14:02:17;102721.72;;;22.40;52.70
35419;BME280;21525;41.240;16.500;2022-12-18T14:04:47;102724.25;;;22.13;52.38
35419;BME280;21525;41.240;16.500;2022-12-18T14:07:28;102734.81;;;22.15;52.47
35419;BME280;21525;41.240;16.500;2022-12-18T14:09:57;102733.84;;;21.87;54.08
35419;BME280;21525;41.240;16.500;2022-12-18T14:12:27;102734.91;;;21.79;54.30
35419;BME280;21525;41.240;16.500;2022-12-18T14:15:33;102731.03;;;22.24;52.21
35419;BME280;21525;41.240;16.500;2022-12-18T14:18:00;102738.53;;;21.77;54.27
35419;BME280;21525;41.240;16.500;2022-12-18T14:20:29;102733.38;;;21.72;53.34
35419;BME280;21525;41.240;16.500;2022-12-18T14:22:57;102733.84;;;21.87;50.66
35419;BME280;21525;41.240;16.500;2022-12-18T14:33:23;102746.19;;;21.88;50.10
35419;BME280;21525;41.240;16.500;2022-12-18T14:40:58;102756.34;;;22.04;51.35
35419;BME280;21525;41.240;16.500;2022-12-18T14:43:26;102748.66;;;21.94;52.43
35419;BME280;21525;41.240;16.500;2022-12-18T14:45:52;102764.72;;;21.88;53.95
35419;BME280;21525;41.240;16.500;2022-12-18T14:48:39;102766.94;;;21.72;55.38
35419;BME280;21525;41.240;16.500;2022-12-18T14:53:43;102770.72;;;21.94;55.17
35419;BME280;21525;41.240;16.500;2022-12-18T14:56:16;102774.19;;;21.65;56.31